Home > Products > Valid Products > TAF

000
FTUS42 KGSP 061130
TAFCLT
TAF
KCLT 061130Z 0612/0712 36004KT P6SM BKN250
     FM061500 03004KT P6SM BKN250
     FM070000 03005KT P6SM BKN080=



000
FTUS42 KGSP 061130
TAFAVL
TAF
KAVL 061130Z 0612/0712 00000KT P6SM BKN250
     FM061600 35007KT P6SM SCT060 BKN250
     FM070000 35004KT P6SM BKN250=



000
FTUS42 KGSP 061130
TAFGSP
TAF
KGSP 061130Z 0612/0712 03004KT P6SM BKN250
     FM070000 03004KT P6SM SCT080 BKN250=



000
FTUS42 KGSP 060857 AAA
TAFCLT
TAF AMD
KCLT 060857Z 0609/0706 36005KT P6SM BKN250
     FM061200 06005KT P6SM BKN250
     FM070000 04005KT P6SM BKN090=



000
FTUS42 KGSP 060857 AAA
TAFCLT
TAF AMD
KCLT 060857Z 0609/0706 36005KT P6SM BKN250
     FM061200 06005KT P6SM BKN250
     FM070000 04005KT P6SM BKN090=



000
FTUS42 KGSP 060857 AAA
TAFCLT
TAF AMD
KCLT 060857Z 0609/0706 36005KT P6SM BKN250
     FM061200 06005KT P6SM BKN250
     FM070000 04005KT P6SM BKN090=



000
FTUS42 KGSP 060530
TAFCLT
TAF
KCLT 060530Z 0606/0706 36003KT P6SM BKN250
     FM061200 06004KT P6SM BKN250
     FM070000 04004KT P6SM BKN090=



000
FTUS42 KGSP 060530
TAFGSP
TAF
KGSP 060530Z 0606/0706 02003KT P6SM BKN250
     FM061500 04004KT P6SM BKN250
     FM070000 02003KT P6SM SCT090 BKN250=



000
FTUS42 KGSP 060530
TAFAVL
TAF
KAVL 060530Z 0606/0706 VRB03KT P6SM BKN250
     FM061500 35006KT P6SM SCT060 BKN250
     FM070100 35004KT P6SM BKN250=



000
FTUS42 KGSP 052323
TAFAVL
TAF
KAVL 052323Z 0600/0624 34007KT P6SM FEW250
     FM060400 34003KT P6SM SCT250
     FM061500 35007KT P6SM BKN200=



000
FTUS42 KGSP 052323
TAFGSP
TAF
KGSP 052323Z 0600/0624 34004KT P6SM SKC
     FM060600 04003KT P6SM SCT250
     FM061600 04006KT P6SM BKN200=



000
FTUS42 KGSP 052323
TAFAVL
TAF
KAVL 052323Z 0600/0624 34007KT P6SM FEW250
     FM060400 34003KT P6SM SCT250
     FM061500 35007KT P6SM BKN200=



000
FTUS42 KGSP 052323
TAFCLT
TAF
KCLT 052323Z 0600/0624 01004KT P6SM SKC
     FM060800 05003KT P6SM SCT250
     FM061700 03006KT P6SM BKN200=



000
FTUS42 KGSP 052323
TAFAVL
TAF
KAVL 052323Z 0600/0624 34007KT P6SM FEW250
     FM060400 34003KT P6SM SCT250
     FM061500 35007KT P6SM BKN200=



000
FTUS42 KGSP 052323
TAFCLT
TAF
KCLT 052323Z 0600/0624 01004KT P6SM SKC
     FM060800 05003KT P6SM SCT250
     FM061700 03006KT P6SM BKN200=



000
FTUS42 KGSP 052323
TAFGSP
TAF
KGSP 052323Z 0600/0624 34004KT P6SM SKC
     FM060600 04003KT P6SM SCT250
     FM061600 04006KT P6SM BKN200=



000
FTUS42 KGSP 052323
TAFCLT
TAF
KCLT 052323Z 0600/0624 01004KT P6SM SKC
     FM060800 05003KT P6SM SCT250
     FM061700 03006KT P6SM BKN200=



000
FTUS42 KGSP 052059 AAA
TAFCLT
TAF AMD
KCLT 052059Z 0521/0618 34012G18KT P6SM FEW250
     FM052300 35007KT P6SM FEW250
     FM060300 03004KT P6SM SCT250
     FM061400 07005KT P6SM FEW120 BKN250=



000
FTUS42 KGSP 051725
TAFGSP
TAF
KGSP 051725Z 0518/0618 02007KT P6SM SKC
     FM052300 01004KT P6SM SKC
     FM061500 08005KT P6SM SCT180=



000
FTUS42 KGSP 051725
TAFCLT
TAF
KCLT 051725Z 0518/0618 36014G22KT P6SM SKC
     FM052100 35007KT P6SM SKC
     FM060200 03004KT P6SM SKC
     FM061400 07005KT P6SM FEW120 BKN250=



000
FTUS42 KGSP 051725
TAFAVL
TAF
KAVL 051725Z 0518/0618 34016G20KT P6SM SKC
     FM052200 34008KT P6SM SKC
     FM060200 34004KT P6SM FEW250
     FM061300 34006KT P6SM SCT120 BKN250=



000
FTUS42 KGSP 051725
TAFAVL
TAF
KAVL 051725Z 0518/0618 34016G20KT P6SM SKC
     FM052200 34008KT P6SM SKC
     FM060200 34004KT P6SM FEW250
     FM061300 34006KT P6SM SCT120 BKN250=



000
FTUS42 KGSP 051725
TAFCLT
TAF
KCLT 051725Z 0518/0618 36014G22KT P6SM SKC
     FM052100 35007KT P6SM SKC
     FM060200 03004KT P6SM SKC
     FM061400 07005KT P6SM FEW120 BKN250=



000
FTUS42 KGSP 051618 AAA
TAFAVL
TAF AMD
KAVL 051618Z 0516/0612 36013G19KT P6SM SKC
     FM052200 35008KT P6SM FEW250
     FM060300 35004KT P6SM BKN250=



000
FTUS42 KGSP 051618 AAA
TAFAVL
TAF AMD
KAVL 051618Z 0516/0612 36013G19KT P6SM SKC
     FM052200 35008KT P6SM FEW250
     FM060300 35004KT P6SM BKN250=



000
FTUS42 KGSP 051618 AAA
TAFAVL
TAF AMD
KAVL 051618Z 0516/0612 36013G19KT P6SM SKC
     FM052200 35008KT P6SM FEW250
     FM060300 35004KT P6SM BKN250=



000
FTUS42 KGSP 051617 AAB
TAFGSP
TAF AMD
KGSP 051617Z 0516/0612 01008KT P6SM SKC
     FM052200 02006KT P6SM FEW250
     FM060300 04003KT P6SM BKN250=



000
FTUS42 KGSP 051617 AAB
TAFGSP
TAF AMD
KGSP 051617Z 0516/0612 01008KT P6SM SKC
     FM052200 02006KT P6SM FEW250
     FM060300 04003KT P6SM BKN250=



000
FTUS42 KGSP 051519 AAA
TAFCLT
TAF AMD
KCLT 051519Z 0515/0612 36014G24KT P6SM SKC
     FM052100 36008KT P6SM FEW250
     FM060600 04003KT P6SM BKN250=



000
FTUS42 KGSP 051519 AAA
TAFCLT
TAF AMD
KCLT 051519Z 0515/0612 36014G24KT P6SM SKC
     FM052100 36008KT P6SM FEW250
     FM060600 04003KT P6SM BKN250=



000
FTUS42 KGSP 051519 AAA
TAFCLT
TAF AMD
KCLT 051519Z 0515/0612 36014G24KT P6SM SKC
     FM052100 36008KT P6SM FEW250
     FM060600 04003KT P6SM BKN250=



000
FTUS42 KGSP 051130
TAFCLT
TAF
KCLT 051130Z 0512/0612 34011KT P6SM SCT120
     FM051400 35012G20KT P6SM SKC
     FM052300 36004KT P6SM FEW250
     FM060600 04003KT P6SM BKN250=



000
FTUS42 KGSP 051130
TAFCLT
TAF
KCLT 051130Z 0512/0612 34011KT P6SM SCT120
     FM051400 35012G20KT P6SM SKC
     FM052300 36004KT P6SM FEW250
     FM060600 04003KT P6SM BKN250=



000
FTUS42 KGSP 051130
TAFCLT
TAF
KCLT 051130Z 0512/0612 34011KT P6SM SCT120
     FM051400 35012G20KT P6SM SKC
     FM052300 36004KT P6SM FEW250
     FM060600 04003KT P6SM BKN250=



000
FTUS42 KGSP 051130
TAFAVL
TAF
KAVL 051130Z 0512/0612 35020G30KT P6SM SKC
     FM051800 35012G20KT P6SM SKC
     FM052300 35008KT P6SM FEW250
     FM060300 35004KT P6SM BKN250=



000
FTUS42 KGSP 051130
TAFGSP
TAF
KGSP 051130Z 0512/0612 34009KT P6SM SKC
     FM051400 36010G18KT P6SM SKC
     FM052200 02006KT P6SM FEW250
     FM060300 04003KT P6SM BKN250=



000
FTUS42 KGSP 051130
TAFAVL
TAF
KAVL 051130Z 0512/0612 35020G30KT P6SM SKC
     FM051800 35012G20KT P6SM SKC
     FM052300 35008KT P6SM FEW250
     FM060300 35004KT P6SM BKN250=



000
FTUS42 KGSP 051130
TAFAVL
TAF
KAVL 051130Z 0512/0612 35020G30KT P6SM SKC
     FM051800 35012G20KT P6SM SKC
     FM052300 35008KT P6SM FEW250
     FM060300 35004KT P6SM BKN250=



000
FTUS42 KGSP 051130
TAFGSP
TAF
KGSP 051130Z 0512/0612 34009KT P6SM SKC
     FM051400 36010G18KT P6SM SKC
     FM052200 02006KT P6SM FEW250
     FM060300 04003KT P6SM BKN250=



000
FTUS42 KGSP 050859 AAA
TAFCLT
TAF AMD
KCLT 050859Z 0509/0606 34010G18KT P6SM VCSH OVC050
      TEMPO 0509/0511 6SM -SHSN BR
     FM051100 35012G20KT P6SM BKN080
     FM051400 35015G25KT P6SM FEW080
     FM052300 01004KT P6SM SKC=



000
FTUS42 KGSP 050859 AAA
TAFAVL
TAF AMD
KAVL 050859Z 0509/0606 34025G35KT P6SM FEW040
     FM051800 35015G25KT P6SM SKC
     FM052300 35008KT P6SM SKC
     FM060300 35004KT P6SM FEW250=



000
FTUS42 KGSP 050859 AAA
TAFGSP
TAF AMD
KGSP 050859Z 0509/0606 34010G18KT P6SM SCT080
     FM051400 36012G20KT P6SM FEW080
     FM052200 01006KT P6SM SKC
     FM060100 03003KT P6SM FEW250=



000
FTUS42 KGSP 050536
TAFCLT
TAF
KCLT 050536Z 0506/0606 36012G20KT P6SM VCSH OVC045
      TEMPO 0507/0511 4SM -SHSN BR OVC025
     FM051100 35012G20KT P6SM BKN045
     FM051400 35015G25KT P6SM FEW050
     FM052300 01004KT P6SM SKC=



000
FTUS42 KGSP 050536
TAFCLT
TAF
KCLT 050536Z 0506/0606 36012G20KT P6SM VCSH OVC045
      TEMPO 0507/0511 4SM -SHSN BR OVC025
     FM051100 35012G20KT P6SM BKN045
     FM051400 35015G25KT P6SM FEW050
     FM052300 01004KT P6SM SKC=



000
FTUS42 KGSP 050536
TAFGSP
TAF
KGSP 050536Z 0506/0606 36011KT P6SM VCSH OVC045
     FM050900 34011KT P6SM SCT045
     FM051400 36012G20KT P6SM FEW050
     FM052200 01006KT P6SM SKC
     FM060100 03003KT P6SM FEW250=



000
FTUS42 KGSP 050536
TAFAVL
TAF
KAVL 050536Z 0506/0606 34025G35KT P6SM VCSH OVC060
     FM051000 34025G35KT P6SM FEW060
     FM051800 35015G25KT P6SM SKC
     FM052300 35008KT P6SM SKC
     FM060300 35004KT P6SM FEW250=



000
FTUS42 KGSP 050536
TAFAVL
TAF
KAVL 050536Z 0506/0606 34025G35KT P6SM VCSH OVC060
     FM051000 34025G35KT P6SM FEW060
     FM051800 35015G25KT P6SM SKC
     FM052300 35008KT P6SM SKC
     FM060300 35004KT P6SM FEW250=



000
FTUS42 KGSP 050536
TAFGSP
TAF
KGSP 050536Z 0506/0606 36011KT P6SM VCSH OVC045
     FM050900 34011KT P6SM SCT045
     FM051400 36012G20KT P6SM FEW050
     FM052200 01006KT P6SM SKC
     FM060100 03003KT P6SM FEW250=



000
FTUS42 KGSP 050536
TAFCLT
TAF
KCLT 050536Z 0506/0606 36012G20KT P6SM VCSH OVC045
      TEMPO 0507/0511 4SM -SHSN BR OVC025
     FM051100 35012G20KT P6SM BKN045
     FM051400 35015G25KT P6SM FEW050
     FM052300 01004KT P6SM SKC=



000
FTUS42 KGSP 050536
TAFAVL
TAF
KAVL 050536Z 0506/0606 34025G35KT P6SM VCSH OVC060
     FM051000 34025G35KT P6SM FEW060
     FM051800 35015G25KT P6SM SKC
     FM052300 35008KT P6SM SKC
     FM060300 35004KT P6SM FEW250=



000
FTUS42 KGSP 050013 AAA
TAFCLT
TAF AMD
KCLT 050013Z 0500/0524 02010KT P6SM OVC035
     FM050400 36012G18KT P6SM VCSH OVC035
      TEMPO 0507/0511 4SM -SHSN OVC020
     FM051100 35013G21KT P6SM BKN040
     FM051500 35014G20KT P6SM FEW050
     FM052100 35008KT P6SM SKC=



000
FTUS42 KGSP 042335
TAFAVL
TAF
KAVL 042335Z 0500/0524 35016G25KT P6SM BKN060
     FM050700 33016G27KT P6SM BKN035
     FM051300 33015G25KT P6SM FEW040
     FM051900 34010KT P6SM FEW200=



000
FTUS42 KGSP 042335
TAFCLT
TAF
KCLT 042335Z 0500/0524 02010KT P6SM BKN025 OVC035
     FM050400 36012G18KT P6SM VCSH OVC035
      TEMPO 0507/0511 4SM -SHSN OVC020
     FM051100 35013G21KT P6SM BKN040
     FM051500 35014G20KT P6SM FEW050
     FM052100 35008KT P6SM SKC=



000
FTUS42 KGSP 042335
TAFGSP
TAF
KGSP 042335Z 0500/0524 36010KT P6SM SCT045 OVC150
     FM050500 34012KT P6SM VCSH BKN040
     FM051000 34011KT P6SM SCT050
     FM051400 35010G17KT P6SM SKC
     FM052100 36007KT P6SM SKC=



000
FTUS42 KGSP 042335
TAFCLT
TAF
KCLT 042335Z 0500/0524 02010KT P6SM BKN025 OVC035
     FM050400 36012G18KT P6SM VCSH OVC035
      TEMPO 0507/0511 4SM -SHSN OVC020
     FM051100 35013G21KT P6SM BKN040
     FM051500 35014G20KT P6SM FEW050
     FM052100 35008KT P6SM SKC=



000
FTUS42 KGSP 042335
TAFAVL
TAF
KAVL 042335Z 0500/0524 35016G25KT P6SM BKN060
     FM050700 33016G27KT P6SM BKN035
     FM051300 33015G25KT P6SM FEW040
     FM051900 34010KT P6SM FEW200=



000
FTUS42 KGSP 042335
TAFGSP
TAF
KGSP 042335Z 0500/0524 36010KT P6SM SCT045 OVC150
     FM050500 34012KT P6SM VCSH BKN040
     FM051000 34011KT P6SM SCT050
     FM051400 35010G17KT P6SM SKC
     FM052100 36007KT P6SM SKC=



000
FTUS42 KGSP 042102 AAA
TAFCLT
TAF AMD
KCLT 042102Z 0421/0518 02008KT P6SM SCT025 BKN060
      TEMPO 0421/0423 BKN025
     FM050200 36010KT P6SM BKN035
     FM050800 34011KT P6SM BKN040 PROB30 0508/0512 5SM -SHSN OVC030
     FM051300 34014G21KT P6SM SKC=



000
FTUS42 KGSP 042102 AAA
TAFCLT
TAF AMD
KCLT 042102Z 0421/0518 02008KT P6SM SCT025 BKN060
      TEMPO 0421/0423 BKN025
     FM050200 36010KT P6SM BKN035
     FM050800 34011KT P6SM BKN040 PROB30 0508/0512 5SM -SHSN OVC030
     FM051300 34014G21KT P6SM SKC=



000
FTUS42 KGSP 042102 AAA
TAFCLT
TAF AMD
KCLT 042102Z 0421/0518 02008KT P6SM SCT025 BKN060
      TEMPO 0421/0423 BKN025
     FM050200 36010KT P6SM BKN035
     FM050800 34011KT P6SM BKN040 PROB30 0508/0512 5SM -SHSN OVC030
     FM051300 34014G21KT P6SM SKC=



000
FTUS42 KGSP 041731
TAFCLT
TAF
KCLT 041731Z 0418/0518 04007KT P6SM BKN018 OVC250
     FM041900 01006KT P6SM SCT030 BKN100
      TEMPO 0419/0423 BKN030
     FM050200 36010KT P6SM BKN035
     FM050900 34011KT P6SM SCT045
     FM051300 34014G21KT P6SM SKC=



000
FTUS42 KGSP 041731
TAFGSP
TAF
KGSP 041731Z 0418/0518 05004KT P6SM SCT100
      TEMPO 0418/0422 BKN100
     FM050200 35010KT P6SM SCT035 BKN060
     FM050700 34011KT P6SM SCT050
     FM051100 35010G18KT P6SM SKC=



000
FTUS42 KGSP 041731
TAFAVL
TAF
KAVL 041731Z 0418/0518 35016G21KT P6SM SCT150
     FM042200 34015G25KT P6SM SCT060 BKN110
     FM050600 33018G28KT P6SM SCT040
     FM051100 34016G26KT P6SM SKC=



000
FTUS42 KGSP 041731
TAFCLT
TAF
KCLT 041731Z 0418/0518 04007KT P6SM BKN018 OVC250
     FM041900 01006KT P6SM SCT030 BKN100
      TEMPO 0419/0423 BKN030
     FM050200 36010KT P6SM BKN035
     FM050900 34011KT P6SM SCT045
     FM051300 34014G21KT P6SM SKC=



000
FTUS42 KGSP 041731
TAFAVL
TAF
KAVL 041731Z 0418/0518 35016G21KT P6SM SCT150
     FM042200 34015G25KT P6SM SCT060 BKN110
     FM050600 33018G28KT P6SM SCT040
     FM051100 34016G26KT P6SM SKC=



000
FTUS42 KGSP 041731
TAFGSP
TAF
KGSP 041731Z 0418/0518 05004KT P6SM SCT100
      TEMPO 0418/0422 BKN100
     FM050200 35010KT P6SM SCT035 BKN060
     FM050700 34011KT P6SM SCT050
     FM051100 35010G18KT P6SM SKC=



000
FTUS42 KGSP 041731
TAFAVL
TAF
KAVL 041731Z 0418/0518 35016G21KT P6SM SCT150
     FM042200 34015G25KT P6SM SCT060 BKN110
     FM050600 33018G28KT P6SM SCT040
     FM051100 34016G26KT P6SM SKC=



000
FTUS42 KGSP 041731
TAFCLT
TAF
KCLT 041731Z 0418/0518 04007KT P6SM BKN018 OVC250
     FM041900 01006KT P6SM SCT030 BKN100
      TEMPO 0419/0423 BKN030
     FM050200 36010KT P6SM BKN035
     FM050900 34011KT P6SM SCT045
     FM051300 34014G21KT P6SM SKC=



000
FTUS42 KGSP 041507 AAB
TAFCLT
TAF AMD
KCLT 041507Z 0415/0512 00000KT P6SM BKN013 OVC018
     FM041700 35007KT P6SM BKN020
     FM042000 02007KT P6SM OVC035
     FM050500 35010KT P6SM BKN060=



000
FTUS42 KGSP 041411 AAA
TAFAVL
TAF AMD
KAVL 041411Z 0414/0512 35014KT P6SM BKN080
     FM041700 34012KT P6SM SCT120
     FM050700 34016G24KT P6SM SCT035=



000
FTUS42 KGSP 041347 AAA
TAFCLT
TAF AMD
KCLT 041347Z 0414/0512 00000KT P6SM OVC013
     FM041500 35007KT P6SM BKN020
     FM042000 02007KT P6SM OVC035
     FM050500 35010KT P6SM BKN060=



000
FTUS42 KGSP 041230 AAA
TAFGSP
TAF AMD
KGSP 041230Z 0413/0512 34003KT 3SM BR SCT003 BKN090
     FM041400 34005KT P6SM BKN080
     FM050300 35009KT P6SM BKN060
     FM051100 35006KT P6SM FEW250=



000
FTUS42 KGSP 041138
TAFAVL
TAF
KAVL 041138Z 0412/0512 34015G23KT P6SM SCT035
      TEMPO 0413/0416 BKN025 BKN035
     FM041700 34012KT P6SM SCT120
     FM050700 34016G24KT P6SM SCT035=



000
FTUS42 KGSP 041138
TAFCLT
TAF
KCLT 041138Z 0412/0512 30003KT P6SM FEW008 OVC011
      TEMPO 0412/0415 3SM BR SCT004 BKN008 OVC012
     FM041500 35007KT P6SM BKN020
     FM042000 02007KT P6SM OVC035
     FM050500 35010KT P6SM BKN060=



000
FTUS42 KGSP 041138
TAFAVL
TAF
KAVL 041138Z 0412/0512 34015G23KT P6SM SCT035
      TEMPO 0413/0416 BKN025 BKN035
     FM041700 34012KT P6SM SCT120
     FM050700 34016G24KT P6SM SCT035=



000
FTUS42 KGSP 041138
TAFCLT
TAF
KCLT 041138Z 0412/0512 30003KT P6SM FEW008 OVC011
      TEMPO 0412/0415 3SM BR SCT004 BKN008 OVC012
     FM041500 35007KT P6SM BKN020
     FM042000 02007KT P6SM OVC035
     FM050500 35010KT P6SM BKN060=



000
FTUS42 KGSP 041138
TAFGSP
TAF
KGSP 041138Z 0412/0512 34003KT 2SM BR SCT003 BKN090
      TEMPO 0412/0413 1/4SM FG BKN002 OVC090
     FM041400 34005KT P6SM BKN080
     FM050300 35009KT P6SM BKN060
     FM051100 35006KT P6SM FEW250=



000
FTUS42 KGSP 041138
TAFAVL
TAF
KAVL 041138Z 0412/0512 34015G23KT P6SM SCT035
      TEMPO 0413/0416 BKN025 BKN035
     FM041700 34012KT P6SM SCT120
     FM050700 34016G24KT P6SM SCT035=



000
FTUS42 KGSP 041138
TAFGSP
TAF
KGSP 041138Z 0412/0512 34003KT 2SM BR SCT003 BKN090
      TEMPO 0412/0413 1/4SM FG BKN002 OVC090
     FM041400 34005KT P6SM BKN080
     FM050300 35009KT P6SM BKN060
     FM051100 35006KT P6SM FEW250=



000
FTUS42 KGSP 041138
TAFCLT
TAF
KCLT 041138Z 0412/0512 30003KT P6SM FEW008 OVC011
      TEMPO 0412/0415 3SM BR SCT004 BKN008 OVC012
     FM041500 35007KT P6SM BKN020
     FM042000 02007KT P6SM OVC035
     FM050500 35010KT P6SM BKN060=



000
FTUS42 KGSP 041056 AAC
TAFGSP
TAF AMD
KGSP 041056Z 0411/0506 VRB03KT 1SM BR SCT002 BKN090
      TEMPO 0411/0413 1/4SM FG VV002
     FM041400 30004KT P6SM BKN080
     FM041700 36005KT P6SM BKN100
     FM050500 35009KT P6SM SCT060=



000
FTUS42 KGSP 041012 AAB
TAFGSP
TAF AMD
KGSP 041012Z 0410/0506 VRB03KT P6SM BKN090
      TEMPO 0410/0413 3SM BR FEW003 SCT090
     FM041400 30004KT P6SM BKN080
     FM041700 36005KT P6SM BKN100
     FM050500 35009KT P6SM SCT060=



000
FTUS42 KGSP 041012 AAB
TAFGSP
TAF AMD
KGSP 041012Z 0410/0506 VRB03KT P6SM BKN090
      TEMPO 0410/0413 3SM BR FEW003 SCT090
     FM041400 30004KT P6SM BKN080
     FM041700 36005KT P6SM BKN100
     FM050500 35009KT P6SM SCT060=



000
FTUS42 KGSP 040936 AAA
TAFAVL
TAF AMD
KAVL 040936Z 0410/0506 34014G22KT P6SM SCT090
     FM041200 33014G22KT P6SM SCT025 BKN035
      TEMPO 0412/0415 BKN025 OVC035
     FM041600 33011KT P6SM BKN035
     FM050400 33011KT P6SM SCT035=



000
FTUS42 KGSP 040857 AAB
TAFGSP
TAF AMD
KGSP 040857Z 0409/0506 22003KT 1SM BR SCT002
     FM041100 30004KT P6SM BKN080
     FM041700 36005KT P6SM BKN100
     FM050500 35009KT P6SM SCT060=



000
FTUS42 KGSP 040857 AAB
TAFGSP
TAF AMD
KGSP 040857Z 0409/0506 22003KT 1SM BR SCT002
     FM041100 30004KT P6SM BKN080
     FM041700 36005KT P6SM BKN100
     FM050500 35009KT P6SM SCT060=



000
FTUS42 KGSP 040848 AAA
TAFCLT
TAF AMD
KCLT 040848Z 0409/0506 23004KT P6SM SCT009 BKN120
      TEMPO 0409/0412 4SM BR BKN009 OVC120
     FM041400 35006KT P6SM OVC070
     FM041700 02007KT P6SM SCT019 OVC035=



000
FTUS42 KGSP 040848 AAA
TAFCLT
TAF AMD
KCLT 040848Z 0409/0506 23004KT P6SM SCT009 BKN120
      TEMPO 0409/0412 4SM BR BKN009 OVC120
     FM041400 35006KT P6SM OVC070
     FM041700 02007KT P6SM SCT019 OVC035=



000
FTUS42 KGSP 040848 AAA
TAFCLT
TAF AMD
KCLT 040848Z 0409/0506 23004KT P6SM SCT009 BKN120
      TEMPO 0409/0412 4SM BR BKN009 OVC120
     FM041400 35006KT P6SM OVC070
     FM041700 02007KT P6SM SCT019 OVC035=



000
FTUS42 KGSP 040558 CCB
TAFGSP
TAF COR
KGSP 040558Z 0406/0506 24006KT 4SM BR FEW005 BKN080
      TEMPO 0407/0409 1 1/2SM BR BKN006 OVC080
     FM041000 30004KT P6SM BKN080
     FM041700 36005KT P6SM BKN100
     FM050500 35009KT P6SM SCT060=



000
FTUS42 KGSP 040540
TAFAVL
TAF
KAVL 040540Z 0406/0506 34008KT P6SM BKN090
     FM040900 33010KT 6SM BR SCT015 BKN035
      TEMPO 0409/0412 SCT008 BKN015 BKN035
     FM041200 33010KT P6SM BKN026
     FM041600 33011KT P6SM BKN035
     FM050400 33011KT P6SM SCT035=



000
FTUS42 KGSP 040540
TAFCLT
TAF
KCLT 040540Z 0406/0506 21007KT P6SM OVC080
     FM040800 24004KT 3SM BR SCT007 OVC013
      TEMPO 0408/0411 2SM BR SCT003 OVC007
     FM041400 35006KT P6SM OVC070
     FM041700 02007KT P6SM SCT019 OVC035=



000
FTUS42 KGSP 040540
TAFCLT
TAF
KCLT 040540Z 0406/0506 21007KT P6SM OVC080
     FM040800 24004KT 3SM BR SCT007 OVC013
      TEMPO 0408/0411 2SM BR SCT003 OVC007
     FM041400 35006KT P6SM OVC070
     FM041700 02007KT P6SM SCT019 OVC035=



000
FTUS42 KGSP 040540
TAFAVL
TAF
KAVL 040540Z 0406/0506 34008KT P6SM BKN090
     FM040900 33010KT 6SM BR SCT015 BKN035
      TEMPO 0409/0412 SCT008 BKN015 BKN035
     FM041200 33010KT P6SM BKN026
     FM041600 33011KT P6SM BKN035
     FM050400 33011KT P6SM SCT035=



000
FTUS42 KGSP 040540
TAFGSP
TAF
KGSP 040540Z 0406/0506 24007KT 4SM BR FEW006 BKN080
      TEMPO 0406/0409 1 1/2SM BR BKN006 OVC080
     FM041000 30004KT P6SM BKN080
     FM041700 36005KT P6SM BKN100
     FM050500 35009KT P6SM SCT060=



000
FTUS42 KGSP 040540
TAFAVL
TAF
KAVL 040540Z 0406/0506 34008KT P6SM BKN090
     FM040900 33010KT 6SM BR SCT015 BKN035
      TEMPO 0409/0412 SCT008 BKN015 BKN035
     FM041200 33010KT P6SM BKN026
     FM041600 33011KT P6SM BKN035
     FM050400 33011KT P6SM SCT035=



000
FTUS42 KGSP 040540
TAFCLT
TAF
KCLT 040540Z 0406/0506 21007KT P6SM OVC080
     FM040800 24004KT 3SM BR SCT007 OVC013
      TEMPO 0408/0411 2SM BR SCT003 OVC007
     FM041400 35006KT P6SM OVC070
     FM041700 02007KT P6SM SCT019 OVC035=



000
FTUS42 KGSP 040540
TAFGSP
TAF
KGSP 040540Z 0406/0506 24007KT 4SM BR FEW006 BKN080
      TEMPO 0406/0409 1 1/2SM BR BKN006 OVC080
     FM041000 30004KT P6SM BKN080
     FM041700 36005KT P6SM BKN100
     FM050500 35009KT P6SM SCT060=



000
FTUS42 KGSP 040318 AAB
TAFAVL
TAF AMD
KAVL 040318Z 0403/0424 VRB03KT 2SM BR BKN002 OVC060
     FM040400 33010KT 6SM BR FEW003 SCT020 BKN040
     FM040800 34011G17KT P6SM BKN025
     FM041300 35012G18KT P6SM BKN040=



000
FTUS42 KGSP 040259 AAA
TAFAVL
TAF AMD
KAVL 040259Z 0403/0424 VRB03KT 1SM BR FEW003 SCT020 OVC150
     FM040400 33010KT 6SM BR SCT020 BKN045
     FM040800 34011G17KT P6SM BKN025
     FM041300 35012G18KT P6SM BKN040=



000
FTUS42 KGSP 040259 AAA
TAFAVL
TAF AMD
KAVL 040259Z 0403/0424 VRB03KT 1SM BR FEW003 SCT020 OVC150
     FM040400 33010KT 6SM BR SCT020 BKN045
     FM040800 34011G17KT P6SM BKN025
     FM041300 35012G18KT P6SM BKN040=



000
FTUS42 KGSP 040259 AAA
TAFAVL
TAF AMD
KAVL 040259Z 0403/0424 VRB03KT 1SM BR FEW003 SCT020 OVC150
     FM040400 33010KT 6SM BR SCT020 BKN045
     FM040800 34011G17KT P6SM BKN025
     FM041300 35012G18KT P6SM BKN040=



000
FTUS42 KGSP 040253 AAA
TAFCLT
TAF AMD
KCLT 040253Z 0403/0424 20007KT 4SM BR VCSH BKN005 OVC010
     FM040500 23005KT 3SM BR BKN007 OVC015
     FM040800 25004KT 3SM BR VCSH SCT008 OVC015
     FM041200 33005KT P6SM SCT015 OVC025
     FM041800 01007KT P6SM SCT020 OVC040=



000
FTUS42 KGSP 040116 AAC
TAFGSP
TAF AMD
KGSP 040116Z 0401/0424 24005KT 4SM BR SCT010 BKN060 OVC120
     FM040800 30004KT 4SM BR FEW010 BKN050
     FM041300 35006KT P6SM SCT025 BKN050=



000
FTUS42 KGSP 040009 AAB
TAFGSP
TAF AMD
KGSP 040009Z 0400/0424 26007KT P6SM SCT010 BKN060 OVC120
     FM040800 30004KT 5SM BR FEW010 BKN050
     FM041300 35006KT P6SM SCT025 BKN050=



000
FTUS42 KGSP 040009 AAB
TAFGSP
TAF AMD
KGSP 040009Z 0400/0424 26007KT P6SM SCT010 BKN060 OVC120
     FM040800 30004KT 5SM BR FEW010 BKN050
     FM041300 35006KT P6SM SCT025 BKN050=



000
FTUS42 KGSP 032351 AAA
TAFGSP
TAF AMD
KGSP 032351Z 0400/0424 25007KT 6SM BR OVC010
     FM040400 26005KT 5SM BR SCT020 OVC040
     FM040800 30004KT 4SM BR FEW010 BKN050
     FM041300 35006KT P6SM SCT025 BKN050=



000
FTUS42 KGSP 032320
TAFCLT
TAF
KCLT 032320Z 0400/0424 20007KT 6SM -SHRA BR OVC006
     FM040400 23006KT 4SM -SHRA BR OVC008
     FM040800 25004KT 3SM BR VCSH SCT008 OVC015
     FM041200 33005KT P6SM SCT015 OVC025
     FM041800 01007KT P6SM SCT020 OVC040=



000
FTUS42 KGSP 032320
TAFAVL
TAF
KAVL 032320Z 0400/0424 19006KT P6SM VCSH SCT020 OVC150
     FM040400 33010KT P6SM SCT020 BKN045
     FM040800 34011G17KT 6SM BR BKN020
     FM041300 35012G18KT P6SM BKN040=



000
FTUS42 KGSP 032320
TAFGSP
TAF
KGSP 032320Z 0400/0424 24007KT P6SM VCSH OVC010
      TEMPO 0400/0404 OVC008
     FM040400 23005KT 6SM BR SCT020 OVC040
     FM040800 30004KT 5SM BR FEW010 BKN050
     FM041300 35006KT P6SM SCT025 BKN050=



000
FTUS42 KGSP 032217 AAC
TAFCLT
TAF AMD
KCLT 032217Z 0322/0418 19008KT 6SM -SHRA BR BKN008 OVC020
     FM040600 23005KT P6SM VCSH SCT010 OVC020
     FM040900 26005KT P6SM OVC045
     FM041300 33005KT P6SM BKN070=



000
FTUS42 KGSP 032217 AAC
TAFCLT
TAF AMD
KCLT 032217Z 0322/0418 19008KT 6SM -SHRA BR BKN008 OVC020
     FM040600 23005KT P6SM VCSH SCT010 OVC020
     FM040900 26005KT P6SM OVC045
     FM041300 33005KT P6SM BKN070=



000
FTUS42 KGSP 032208 AAC
TAFGSP
TAF AMD
KGSP 032208Z 0322/0418 23009KT P6SM VCSH OVC011
      TEMPO 0323/0403 3SM BR OVC006
     FM040300 23007KT P6SM BKN015 OVC035
     FM041000 30004KT P6SM BKN080
     FM041700 01005KT P6SM BKN050=



000
FTUS42 KGSP 032128 AAC
TAFGSP
TAF AMD
KGSP 032128Z 0321/0418 22009KT 4SM BR VCSH OVC006
      TEMPO 0322/0402 3SM BR OVC004
     FM040300 23007KT P6SM BKN015 OVC035
     FM041000 30004KT P6SM BKN080
     FM041700 01005KT P6SM BKN050=



000
FTUS42 KGSP 032128 AAC
TAFGSP
TAF AMD
KGSP 032128Z 0321/0418 22009KT 4SM BR VCSH OVC006
      TEMPO 0322/0402 3SM BR OVC004
     FM040300 23007KT P6SM BKN015 OVC035
     FM041000 30004KT P6SM BKN080
     FM041700 01005KT P6SM BKN050=



000
FTUS42 KGSP 032105 AAB
TAFCLT
TAF AMD
KCLT 032105Z 0321/0418 18010KT 6SM -SHRA BR OVC006
      TEMPO 0322/0401 4SM -SHRA BR OVC004
     FM040200 23005KT P6SM SCT012 OVC025
     FM040400 26005KT P6SM OVC045
     FM041300 33005KT P6SM BKN070=



000
FTUS42 KGSP 032055 AAC
TAFAVL
TAF AMD
KAVL 032055Z 0321/0418 20008KT P6SM VCSH SCT025 BKN050
     FM040200 34003KT P6SM BKN050
     FM040600 33007KT P6SM BKN030
     FM040800 34010KT P6SM BKN022
     FM041700 34009G17KT P6SM SCT200=



000
FTUS42 KGSP 032055 AAC
TAFAVL
TAF AMD
KAVL 032055Z 0321/0418 20008KT P6SM VCSH SCT025 BKN050
     FM040200 34003KT P6SM BKN050
     FM040600 33007KT P6SM BKN030
     FM040800 34010KT P6SM BKN022
     FM041700 34009G17KT P6SM SCT200=



000
FTUS42 KGSP 032055 AAC
TAFAVL
TAF AMD
KAVL 032055Z 0321/0418 20008KT P6SM VCSH SCT025 BKN050
     FM040200 34003KT P6SM BKN050
     FM040600 33007KT P6SM BKN030
     FM040800 34010KT P6SM BKN022
     FM041700 34009G17KT P6SM SCT200=



000
FTUS42 KGSP 032030 AAB
TAFAVL
TAF AMD
KAVL 032030Z 0321/0418 19010G20KT P6SM VCSH BKN015 OVC060
     FM032200 20005KT P6SM BKN040
     FM040200 34003KT P6SM BKN050
     FM040600 33007KT P6SM BKN030
     FM040800 34010KT P6SM BKN022
     FM041700 34009G17KT P6SM SCT200=



000
FTUS42 KGSP 032015 AAA
TAFGSP
TAF AMD
KGSP 032015Z 0320/0418 20009KT 6SM -SHRA BR BKN008 OVC015
     FM032300 23007KT P6SM BKN015 OVC035
     FM041000 30004KT P6SM BKN080
     FM041700 01005KT P6SM BKN050=



000
FTUS42 KGSP 032015 AAA
TAFCLT
TAF AMD
KCLT 032015Z 0320/0418 18012KT 6SM -SHRA BR BKN008 OVC017
     FM032300 18011KT 6SM -SHRA SCT008 OVC016
      TEMPO 0402/0404 23005KT P6SM SCT011 OVC025
     FM040400 26005KT P6SM OVC045
     FM041300 33005KT P6SM BKN070=



000
FTUS42 KGSP 032015 AAA
TAFAVL
TAF AMD
KAVL 032015Z 0320/0418 19008G20KT 6SM -SHRA SCT010 BKN025 OVC080
     FM032200 20005KT P6SM BKN045
     FM040200 34003KT P6SM BKN050
     FM040600 33007KT P6SM BKN030
     FM040800 34010KT P6SM BKN022
     FM041700 34009G17KT P6SM SCT200=



000
FTUS42 KGSP 031745 CCA
TAFAVL
TAF COR
KAVL 031745Z 0318/0418 19008KT 6SM -SHRA SCT010 BKN025 OVC080
     FM032200 20005KT P6SM BKN045
     FM040200 34003KT P6SM BKN050
     FM040600 33007KT P6SM BKN030
     FM040800 34010KT P6SM BKN022
     FM041700 34009KT P6SM SCT200=



000
FTUS42 KGSP 031739
TAFGSP
TAF
KGSP 031739Z 0318/0418 20014KT 6SM -SHRA BKN005 OVC010
     FM032100 20010KT 6SM -SHRA BR OVC017
     FM032200 23007KT P6SM OVC035
     FM041000 30004KT P6SM BKN080
     FM041700 01005KT P6SM BKN050=



000
FTUS42 KGSP 031739
TAFCLT
TAF
KCLT 031739Z 0318/0418 22015G25KT 2SM -SHRA BKN015 BKN030 OVC060
     FM031900 18012G22KT 6SM -SHRA BR SCT008 OVC017
     FM032200 18011KT 6SM -SHRA OVC016
      TEMPO 0402/0404 23005KT P6SM SCT011 OVC025
     FM040400 26005KT P6SM OVC045
     FM041300 33005KT P6SM BKN070=



000
FTUS42 KGSP 031739
TAFAVL
TAF
KAVL 031739Z 0318/0418 20008KT 4SM -SHRA VCTS OVC010CB
     FM032000 24006KT 4SM BR OVC021
     FM032200 27005KT P6SM BKN045
     FM040200 34003KT P6SM BKN050
     FM040600 33007KT P6SM BKN030
     FM040800 33009KT P6SM BKN019
     FM041000 34010KT P6SM BKN022
     FM041300 34011KT P6SM BKN005
     FM041400 34012KT P6SM SCT001
     FM041700 34009KT P6SM SCT200=



000
FTUS42 KGSP 031653 AAB
TAFCLT
TAF AMD
KCLT 031653Z 0317/0412 18015G24KT 6SM SHRA BR OVC007
      TEMPO 0317/0318 25020G30KT 1/2SM -SHRA BKN007 OVC015
     FM031800 20015G22KT 6SM -RA OVC011
     FM032300 19007KT P6SM OVC015
     FM040700 29005KT 6SM BR BKN050=



000
FTUS42 KGSP 031501 AAA
TAFCLT
TAF AMD
KCLT 031501Z 0315/0412 18015G24KT 6SM SHRA BR OVC007
      TEMPO 0316/0319 VRB20G30KT 2SM TSRA SCT007 OVC013CB
     FM031900 20015G22KT 5SM -TSRA OVC011CB
     FM032300 19007KT P6SM OVC015
     FM040700 29005KT 6SM BR BKN050=



    US Dept of Commerce
    National Oceanic and Atmospheric Administration
    National Weather Service
    1325 East West Highway
    Silver Spring, MD 20910
    Page Author: NWS Internet Services Team
Disclaimer
Information Quality
Credits
Glossary
Privacy Policy
Freedom of Information Act (FOIA)
About Us
Career Opportunities